Time;durP1;ratioP1;P1;durP2;ratioP2;P2;SDS_P1;SDS_P2;PMS_P1;PMS_P2;Temp;Humidity;BMP_temperature;BMP_pressure;BME280_temperature;BME280_humidity;BME280_pressure;Samples;Min_cycle;Max_cycle;Signal;HPM_P1;HPM_P2
2021/04/23 00:00:17;;;;;;;9.75;3.70;;;;;;;;;;4956976;28;20046;-67
2021/04/23 00:02:44;;;;;;;14.10;4.53;;;;;;;;;;4968566;28;20047;-69
2021/04/23 00:05:12;;;;;;;11.90;4.07;;;;;;;;;;4968012;28;20055;-68
2021/04/23 00:07:40;;;;;;;12.38;4.05;;;;;;;;;;4973117;28;20102;-68
2021/04/23 00:10:09;;;;;;;10.55;4.18;;;;;;;;;;4973474;28;20133;-69
2021/04/23 00:12:36;;;;;;;8.63;4.20;;;;;;;;;;4973855;28;20051;-67
2021/04/23 00:15:06;;;;;;;11.48;3.65;;;;;;;;;;4960480;28;20069;-67
2021/04/23 00:17:33;;;;;;;12.90;3.67;;;;;;;;;;4971601;28;20082;-67
2021/04/23 00:20:01;;;;;;;10.20;4.30;;;;;;;;;;4973659;28;20047;-72
2021/04/23 00:22:28;;;;;;;15.20;4.10;;;;;;;;;;4970850;28;20533;-67
2021/04/23 00:24:55;;;;;;;13.27;4.65;;;;;;;;;;4968032;28;20055;-67
2021/04/23 00:27:23;;;;;;;12.68;5.40;;;;;;;;;;4957661;28;20138;-68
2021/04/23 00:29:50;;;;;;;12.18;4.05;;;;;;;;;;4954871;29;20114;-70
2021/04/23 00:35:05;;;;;;;10.40;4.05;;;;;;;;;;4946230;29;20335;-69
2021/04/23 00:37:32;;;;;;;10.77;4.13;;;;;;;;;;4952748;28;20503;-68
2021/04/23 00:39:59;;;;;;;15.55;3.67;;;;;;;;;;4938056;29;20597;-67
2021/04/23 00:42:26;;;;;;;10.60;3.63;;;;;;;;;;4953816;29;20079;-69
2021/04/23 00:44:54;;;;;;;13.77;4.47;;;;;;;;;;4936720;29;20047;-68
2021/04/23 00:47:22;;;;;;;13.68;3.78;;;;;;;;;;4940321;28;20083;-69
2021/04/23 00:49:51;;;;;;;14.07;4.60;;;;;;;;;;4949500;29;20051;-67
2021/04/23 00:52:18;;;;;;;10.25;3.97;;;;;;;;;;4948305;29;20079;-69
2021/04/23 00:54:46;;;;;;;12.27;4.20;;;;;;;;;;4949373;29;20135;-67
2021/04/23 00:57:13;;;;;;;12.55;4.28;;;;;;;;;;4953309;28;20498;-67
2021/04/23 00:59:40;;;;;;;12.85;4.05;;;;;;;;;;4952740;29;20079;-67
2021/04/23 01:02:10;;;;;;;13.50;4.40;;;;;;;;;;4945760;29;20051;-72
2021/04/23 01:04:38;;;;;;;9.40;4.03;;;;;;;;;;4964231;28;20058;-70
2021/04/23 01:07:06;;;;;;;10.93;4.05;;;;;;;;;;4965774;28;20154;-67
2021/04/23 01:09:34;;;;;;;10.57;4.63;;;;;;;;;;4969254;28;20050;-67
2021/04/23 01:12:04;;;;;;;13.73;4.38;;;;;;;;;;4959043;28;20047;-70
2021/04/23 01:14:32;;;;;;;16.15;4.55;;;;;;;;;;4969503;28;20129;-67
2021/04/23 01:16:59;;;;;;;12.63;4.63;;;;;;;;;;4970448;28;20133;-67
2021/04/23 01:19:28;;;;;;;10.25;4.40;;;;;;;;;;4970948;28;20053;-67
2021/04/23 01:21:57;;;;;;;13.05;4.28;;;;;;;;;;4971244;28;20454;-67
2021/04/23 01:24:24;;;;;;;10.52;4.53;;;;;;;;;;4957966;28;20577;-67
2021/04/23 01:26:53;;;;;;;15.98;4.75;;;;;;;;;;4971922;28;20538;-68
2021/04/23 01:29:21;;;;;;;12.27;4.53;;;;;;;;;;4963027;28;20109;-67
2021/04/23 01:31:50;;;;;;;11.13;4.53;;;;;;;;;;4964590;28;20057;-70
2021/04/23 01:34:18;;;;;;;14.70;4.90;;;;;;;;;;4972305;28;20051;-68
2021/04/23 01:36:47;;;;;;;12.68;4.68;;;;;;;;;;4971171;28;20481;-67
2021/04/23 01:39:17;;;;;;;14.80;4.75;;;;;;;;;;4968741;28;20055;-69
2021/04/23 01:41:45;;;;;;;13.57;4.20;;;;;;;;;;4973659;28;20047;-68
2021/04/23 01:44:13;;;;;;;11.48;3.97;;;;;;;;;;4967368;28;20051;-67
2021/04/23 01:46:40;;;;;;;12.60;4.20;;;;;;;;;;4968480;28;20050;-67
2021/04/23 01:49:10;;;;;;;9.20;3.95;;;;;;;;;;4972949;28;20549;-69
2021/04/23 01:51:38;;;;;;;12.88;4.38;;;;;;;;;;4959781;28;20114;-67
2021/04/23 01:54:06;;;;;;;9.95;4.15;;;;;;;;;;4966007;28;20471;-67
2021/04/23 01:56:34;;;;;;;14.60;5.05;;;;;;;;;;4965743;28;20410;-67
2021/04/23 01:59:02;;;;;;;15.38;5.15;;;;;;;;;;4965666;28;20133;-67
2021/04/23 02:01:29;;;;;;;12.90;4.80;;;;;;;;;;4971508;28;20487;-67
2021/04/23 02:03:56;;;;;;;13.77;4.90;;;;;;;;;;4966597;28;20078;-68
2021/04/23 02:06:24;;;;;;;15.73;4.80;;;;;;;;;;4970208;28;20046;-68
2021/04/23 02:08:52;;;;;;;14.25;4.95;;;;;;;;;;4965597;28;20051;-72
2021/04/23 02:11:21;;;;;;;14.50;5.03;;;;;;;;;;4963134;28;20138;-71
2021/04/23 02:13:51;;;;;;;11.13;4.70;;;;;;;;;;4957824;28;20071;-71
2021/04/23 02:16:19;;;;;;;10.52;4.35;;;;;;;;;;4967079;28;20054;-71
2021/04/23 02:18:47;;;;;;;13.85;4.38;;;;;;;;;;4969819;28;20079;-67
2021/04/23 02:21:15;;;;;;;12.07;4.90;;;;;;;;;;4970311;28;20586;-67
2021/04/23 02:23:43;;;;;;;9.98;4.72;;;;;;;;;;4962465;28;20496;-67
2021/04/23 02:26:10;;;;;;;11.60;4.47;;;;;;;;;;4956048;28;21144;-68
2021/04/23 02:28:38;;;;;;;11.55;4.35;;;;;;;;;;4968693;28;20146;-67
2021/04/23 02:31:07;;;;;;;10.38;4.18;;;;;;;;;;4964633;28;20540;-67
2021/04/23 02:33:35;;;;;;;7.45;3.67;;;;;;;;;;4968793;28;20053;-69
2021/04/23 02:36:03;;;;;;;6.43;3.58;;;;;;;;;;4971550;28;20078;-67
2021/04/23 02:38:30;;;;;;;11.70;4.53;;;;;;;;;;4964649;28;20138;-69
2021/04/23 02:40:58;;;;;;;10.60;4.75;;;;;;;;;;4966846;28;20070;-68
2021/04/23 02:43:28;;;;;;;12.40;4.53;;;;;;;;;;4968754;28;20114;-68
2021/04/23 02:45:56;;;;;;;13.65;4.25;;;;;;;;;;4968652;28;20053;-68
2021/04/23 02:48:25;;;;;;;14.35;4.47;;;;;;;;;;4961969;28;20050;-68
2021/04/23 02:50:55;;;;;;;11.80;4.07;;;;;;;;;;4972092;28;20450;-67
2021/04/23 02:53:22;;;;;;;14.65;6.38;;;;;;;;;;4968536;28;20082;-67
2021/04/23 02:55:50;;;;;;;11.80;4.78;;;;;;;;;;4962069;28;20501;-67
2021/04/23 02:58:19;;;;;;;16.48;4.43;;;;;;;;;;4962377;28;20086;-67
2021/04/23 03:00:47;;;;;;;11.95;4.95;;;;;;;;;;4966186;28;20110;-69
2021/04/23 03:03:16;;;;;;;15.10;6.30;;;;;;;;;;4967525;28;20066;-67
2021/04/23 03:05:45;;;;;;;16.95;5.75;;;;;;;;;;4967633;28;20138;-70
2021/04/23 03:08:13;;;;;;;16.15;5.40;;;;;;;;;;4962731;28;20156;-69
2021/04/23 03:10:41;;;;;;;14.27;5.15;;;;;;;;;;4963788;28;20359;-67
2021/04/23 03:13:12;;;;;;;9.88;4.65;;;;;;;;;;4965384;28;20550;-67
2021/04/23 03:15:39;;;;;;;13.30;5.20;;;;;;;;;;4970537;28;20439;-67
2021/04/23 03:18:07;;;;;;;12.05;5.00;;;;;;;;;;4959982;28;20059;-67
2021/04/23 03:20:34;;;;;;;9.98;3.95;;;;;;;;;;4954336;28;20051;-70
2021/04/23 03:23:04;;;;;;;9.95;4.53;;;;;;;;;;4965867;28;20058;-67
2021/04/23 03:25:32;;;;;;;15.45;4.47;;;;;;;;;;4970007;28;20134;-67
2021/04/23 03:28:00;;;;;;;17.73;4.75;;;;;;;;;;4952795;28;20129;-66
2021/04/23 03:30:29;;;;;;;12.68;4.47;;;;;;;;;;4954639;28;20051;-67
2021/04/23 03:32:56;;;;;;;12.43;4.88;;;;;;;;;;4966445;28;20106;-67
2021/04/23 03:35:24;;;;;;;13.05;4.93;;;;;;;;;;4967551;28;20043;-67
2021/04/23 03:37:52;;;;;;;13.15;4.47;;;;;;;;;;4964050;28;20047;-70
2021/04/23 03:40:22;;;;;;;14.50;4.10;;;;;;;;;;4960420;28;20081;-67
2021/04/23 03:42:49;;;;;;;13.85;5.25;;;;;;;;;;4965692;28;20051;-67
2021/04/23 03:45:19;;;;;;;14.43;4.15;;;;;;;;;;4969273;28;20047;-67
2021/04/23 03:47:47;;;;;;;14.85;4.78;;;;;;;;;;4968991;28;20069;-69
2021/04/23 03:50:15;;;;;;;14.43;4.72;;;;;;;;;;4970666;28;20145;-69
2021/04/23 03:52:43;;;;;;;15.48;5.03;;;;;;;;;;4969564;28;20121;-67
2021/04/23 03:55:13;;;;;;;13.02;4.70;;;;;;;;;;4971466;28;20515;-67
2021/04/23 03:57:41;;;;;;;22.23;5.57;;;;;;;;;;4962563;28;20062;-67
2021/04/23 04:00:10;;;;;;;15.70;4.47;;;;;;;;;;4969614;28;20129;-69
2021/04/23 04:02:38;;;;;;;19.17;6.72;;;;;;;;;;4969768;28;20134;-67
2021/04/23 04:05:06;;;;;;;14.73;5.20;;;;;;;;;;4957388;28;20059;-67
2021/04/23 04:07:34;;;;;;;13.48;5.00;;;;;;;;;;4966750;28;20546;-68
2021/04/23 04:10:02;;;;;;;14.90;4.30;;;;;;;;;;4967166;28;20082;-67
2021/04/23 04:12:29;;;;;;;13.35;5.07;;;;;;;;;;4969067;28;20049;-67
2021/04/23 04:14:57;;;;;;;18.02;5.03;;;;;;;;;;4958665;28;20051;-68
2021/04/23 04:17:25;;;;;;;14.63;5.50;;;;;;;;;;4968346;28;20058;-68
2021/04/23 04:19:52;;;;;;;15.82;4.80;;;;;;;;;;4970388;28;20043;-70
2021/04/23 04:22:20;;;;;;;13.13;5.82;;;;;;;;;;4970236;28;20047;-70
2021/04/23 04:24:47;;;;;;;9.82;4.35;;;;;;;;;;4964274;28;20129;-67
2021/04/23 04:27:15;;;;;;;16.40;4.65;;;;;;;;;;4968223;28;20433;-67
2021/04/23 04:29:42;;;;;;;15.50;5.45;;;;;;;;;;4970916;28;20494;-70
2021/04/23 04:32:15;;;;;;;19.33;4.90;;;;;;;;;;4966624;28;20054;-68
2021/04/23 04:34:43;;;;;;;12.30;4.47;;;;;;;;;;4963938;28;20059;-68
2021/04/23 04:37:10;;;;;;;15.60;4.38;;;;;;;;;;4966844;28;20058;-68
2021/04/23 04:39:38;;;;;;;18.30;4.75;;;;;;;;;;4972701;28;20207;-67
2021/04/23 04:42:05;;;;;;;16.98;4.88;;;;;;;;;;4963501;28;20138;-68
2021/04/23 04:44:33;;;;;;;19.15;5.22;;;;;;;;;;4970346;28;20078;-67
2021/04/23 04:47:01;;;;;;;14.88;5.05;;;;;;;;;;4970477;28;20047;-67
2021/04/23 04:49:31;;;;;;;15.40;4.95;;;;;;;;;;4970857;28;20426;-67
2021/04/23 04:51:58;;;;;;;14.00;4.32;;;;;;;;;;4973880;28;20109;-67
2021/04/23 04:54:26;;;;;;;14.32;5.20;;;;;;;;;;4974139;28;20050;-66
2021/04/23 04:56:53;;;;;;;9.93;4.55;;;;;;;;;;4971225;28;20054;-68
2021/04/23 04:59:20;;;;;;;15.68;5.43;;;;;;;;;;4961077;28;20081;-66
2021/04/23 05:01:48;;;;;;;14.25;4.10;;;;;;;;;;4970468;28;20136;-66
2021/04/23 05:04:15;;;;;;;14.32;4.45;;;;;;;;;;4972497;28;20566;-66
2021/04/23 05:06:43;;;;;;;12.60;4.53;;;;;;;;;;4970076;28;20055;-67
2021/04/23 05:09:11;;;;;;;13.13;4.78;;;;;;;;;;4970385;28;20524;-67
2021/04/23 05:11:38;;;;;;;15.30;5.07;;;;;;;;;;4966947;28;20047;-67
2021/04/23 05:14:06;;;;;;;19.02;5.18;;;;;;;;;;4967292;28;20937;-67
2021/04/23 05:16:33;;;;;;;13.20;5.00;;;;;;;;;;4962298;28;20135;-67
2021/04/23 05:19:01;;;;;;;17.92;5.25;;;;;;;;;;4969642;28;20057;-69
2021/04/23 05:21:29;;;;;;;15.88;5.63;;;;;;;;;;4972208;28;20632;-67
2021/04/23 05:23:57;;;;;;;15.55;5.30;;;;;;;;;;4968395;28;20035;-66
2021/04/23 05:26:24;;;;;;;14.80;5.80;;;;;;;;;;4959736;28;20050;-71
2021/04/23 05:28:53;;;;;;;15.50;5.13;;;;;;;;;;4961083;28;20043;-70
2021/04/23 05:31:20;;;;;;;18.42;5.72;;;;;;;;;;4968519;28;20138;-67
2021/04/23 05:33:48;;;;;;;21.05;5.47;;;;;;;;;;4961055;28;20065;-67
2021/04/23 05:36:15;;;;;;;19.95;5.40;;;;;;;;;;4965376;28;20055;-68
2021/04/23 05:38:43;;;;;;;16.73;5.65;;;;;;;;;;4966306;28;20082;-67
2021/04/23 05:41:12;;;;;;;14.88;5.75;;;;;;;;;;4966305;28;20066;-70
2021/04/23 05:43:41;;;;;;;18.60;6.60;;;;;;;;;;4967698;28;20046;-67
2021/04/23 05:46:09;;;;;;;19.25;6.60;;;;;;;;;;4969765;28;20081;-71
2021/04/23 05:48:36;;;;;;;17.33;6.93;;;;;;;;;;4964816;28;20079;-67
2021/04/23 05:51:04;;;;;;;15.35;7.05;;;;;;;;;;4968810;28;20153;-66
2021/04/23 05:53:32;;;;;;;23.80;7.05;;;;;;;;;;4961379;28;20550;-66
2021/04/23 05:56:04;;;;;;;18.52;7.20;;;;;;;;;;4969184;28;20065;-66
2021/04/23 05:58:32;;;;;;;19.65;7.75;;;;;;;;;;4968294;28;20161;-65
2021/04/23 06:01:00;;;;;;;22.80;7.28;;;;;;;;;;4968086;28;20102;-66
2021/04/23 06:03:44;;;;;;;16.14;5.40;;;;;;;;;;4437200;28;10001374;-65
2021/04/23 06:06:12;;;;;;;16.88;6.20;;;;;;;;;;1364235;29;10002225;-68
2021/04/23 06:08:40;;;;;;;21.20;5.57;;;;;;;;;;4964900;28;20079;-66
2021/04/23 06:11:14;;;;;;;16.98;5.50;;;;;;;;;;4964362;28;20516;-71
2021/04/23 06:13:42;;;;;;;25.38;6.32;;;;;;;;;;4969540;28;20089;-69
2021/04/23 06:16:10;;;;;;;19.58;5.70;;;;;;;;;;4967012;28;20500;-66
2021/04/23 06:18:38;;;;;;;18.55;5.22;;;;;;;;;;4950465;28;20062;-66
2021/04/23 06:21:06;;;;;;;17.17;4.85;;;;;;;;;;4947839;29;20055;-66
2021/04/23 06:23:34;;;;;;;17.67;4.95;;;;;;;;;;4946673;29;20047;-67
2021/04/23 06:26:01;;;;;;;13.77;4.53;;;;;;;;;;4948736;29;20051;-66
2021/04/23 06:28:29;;;;;;;11.02;5.50;;;;;;;;;;4942461;28;20459;-66
2021/04/23 06:30:57;;;;;;;16.33;5.57;;;;;;;;;;4948613;29;20419;-68
2021/04/23 06:33:28;;;;;;;10.48;4.63;;;;;;;;;;4940453;28;20058;-65
2021/04/23 06:35:56;;;;;;;14.85;4.07;;;;;;;;;;4940410;28;20063;-68
2021/04/23 06:38:24;;;;;;;13.57;4.93;;;;;;;;;;4956584;28;20141;-67
2021/04/23 06:40:52;;;;;;;13.68;4.63;;;;;;;;;;4968823;28;20413;-69
2021/04/23 06:43:19;;;;;;;12.98;3.20;;;;;;;;;;4968160;28;20054;-67
2021/04/23 06:45:49;;;;;;;12.65;4.13;;;;;;;;;;4959147;28;20487;-65
2021/04/23 06:48:18;;;;;;;14.35;4.55;;;;;;;;;;4966202;28;20140;-66
2021/04/23 06:50:47;;;;;;;10.98;4.47;;;;;;;;;;4969802;28;20074;-68
2021/04/23 06:53:15;;;;;;;16.38;3.75;;;;;;;;;;4962769;28;20051;-69
2021/04/23 06:55:43;;;;;;;11.15;3.50;;;;;;;;;;4963101;28;20051;-68
2021/04/23 06:58:11;;;;;;;12.10;4.10;;;;;;;;;;4957900;28;20054;-66
2021/04/23 07:00:39;;;;;;;11.52;3.65;;;;;;;;;;4968966;28;20047;-69
2021/04/23 07:03:09;;;;;;;11.82;3.65;;;;;;;;;;4969506;28;20113;-67
2021/04/23 07:05:38;;;;;;;8.75;3.72;;;;;;;;;;4966692;28;20138;-67
2021/04/23 07:08:07;;;;;;;13.40;4.03;;;;;;;;;;4969303;28;20054;-66
2021/04/23 07:10:35;;;;;;;8.82;3.63;;;;;;;;;;4960893;28;20059;-66
2021/04/23 07:13:03;;;;;;;22.10;4.55;;;;;;;;;;4960307;28;20166;-66
2021/04/23 07:15:31;;;;;;;11.82;5.18;;;;;;;;;;4970817;28;20054;-68
2021/04/23 07:18:01;;;;;;;15.10;5.78;;;;;;;;;;4957349;28;20054;-66
2021/04/23 07:20:38;;;;;;;16.52;6.20;;;;;;;;;;4946433;29;20047;-70
2021/04/23 07:23:07;;;;;;;17.27;6.57;;;;;;;;;;4952635;28;20051;-67
2021/04/23 07:25:36;;;;;;;12.73;5.45;;;;;;;;;;4943751;28;20050;-68
2021/04/23 07:28:05;;;;;;;14.07;5.18;;;;;;;;;;4962385;28;20125;-69
2021/04/23 07:30:35;;;;;;;15.05;5.45;;;;;;;;;;4964645;28;20042;-68
2021/04/23 07:33:05;;;;;;;20.63;5.80;;;;;;;;;;4967068;28;20046;-70
2021/04/23 07:35:34;;;;;;;20.58;5.40;;;;;;;;;;4968610;28;20055;-67
2021/04/23 07:38:03;;;;;;;17.88;6.07;;;;;;;;;;4968029;28;20047;-68
2021/04/23 07:40:33;;;;;;;13.45;5.55;;;;;;;;;;4956085;28;20475;-69
2021/04/23 07:43:01;;;;;;;17.42;5.18;;;;;;;;;;4964432;28;20055;-68
2021/04/23 07:45:49;;;;;;;18.27;6.07;;;;;;;;;;4967977;28;20051;-68
2021/04/23 07:48:18;;;;;;;18.20;5.55;;;;;;;;;;4949497;28;20456;-68
2021/04/23 07:50:46;;;;;;;14.82;5.65;;;;;;;;;;4941650;28;20058;-67
2021/04/23 07:53:14;;;;;;;17.67;6.00;;;;;;;;;;4941448;29;20132;-67
2021/04/23 07:55:43;;;;;;;13.07;4.85;;;;;;;;;;4944306;29;20043;-67
2021/04/23 07:58:12;;;;;;;19.55;5.80;;;;;;;;;;4943269;28;20539;-68
2021/04/23 08:00:40;;;;;;;17.10;5.80;;;;;;;;;;4945148;29;20054;-67
2021/04/23 08:03:08;;;;;;;13.90;5.40;;;;;;;;;;4951250;29;20146;-69
2021/04/23 08:05:37;;;;;;;16.15;4.95;;;;;;;;;;4944484;29;20125;-69
2021/04/23 08:08:07;;;;;;;17.83;5.28;;;;;;;;;;4961425;28;20490;-69
2021/04/23 08:10:35;;;;;;;15.45;4.88;;;;;;;;;;4961061;28;20051;-67
2021/04/23 08:13:05;;;;;;;13.23;4.72;;;;;;;;;;4971339;28;20486;-68
2021/04/23 08:15:36;;;;;;;13.73;4.72;;;;;;;;;;4972308;28;20066;-67
2021/04/23 08:18:04;;;;;;;10.30;4.95;;;;;;;;;;4971304;28;20054;-67
2021/04/23 08:20:34;;;;;;;13.52;5.15;;;;;;;;;;4972856;28;20450;-68
2021/04/23 08:23:02;;;;;;;15.13;4.93;;;;;;;;;;4962246;28;20091;-70
2021/04/23 08:25:30;;;;;;;12.82;4.05;;;;;;;;;;4964539;28;20106;-72
2021/04/23 08:27:58;;;;;;;10.45;4.15;;;;;;;;;;4953997;28;21372;-73
2021/04/23 08:30:28;;;;;;;12.18;4.13;;;;;;;;;;4950174;29;20122;-71
2021/04/23 08:32:57;;;;;;;10.20;4.15;;;;;;;;;;4949474;28;20086;-71
2021/04/23 08:35:25;;;;;;;15.57;4.80;;;;;;;;;;4943097;28;20491;-71
2021/04/23 08:37:54;;;;;;;10.30;3.80;;;;;;;;;;4940540;28;20142;-76
2021/04/23 08:40:23;;;;;;;13.82;5.05;;;;;;;;;;4953200;28;20415;-74
2021/04/23 08:42:53;;;;;;;13.80;4.47;;;;;;;;;;4945626;28;20177;-71
2021/04/23 08:45:21;;;;;;;13.73;4.53;;;;;;;;;;4966224;28;20047;-70
2021/04/23 08:47:51;;;;;;;13.98;5.25;;;;;;;;;;4942747;28;20463;-73
2021/04/23 08:50:20;;;;;;;12.05;5.07;;;;;;;;;;4949829;29;20102;-70
2021/04/23 08:52:49;;;;;;;13.85;5.93;;;;;;;;;;4945008;29;20860;-68
2021/04/23 08:55:19;;;;;;;13.88;5.18;;;;;;;;;;4948821;28;20102;-71
2021/04/23 08:58:08;;;;;;;12.20;4.65;;;;;;;;;;4960539;28;20451;-67
2021/04/23 09:00:35;;;;;;;12.07;4.70;;;;;;;;;;4965557;28;20463;-68
2021/04/23 09:03:04;;;;;;;14.85;5.72;;;;;;;;;;4958814;28;20055;-74
2021/04/23 09:05:33;;;;;;;11.07;4.80;;;;;;;;;;4942796;29;20139;-76
2021/04/23 09:08:03;;;;;;;11.13;5.22;;;;;;;;;;4941683;29;20467;-67
2021/04/23 09:10:32;;;;;;;12.52;4.75;;;;;;;;;;4942411;29;20058;-70
2021/04/23 09:13:08;;;;;;;9.27;4.70;;;;;;;;;;4946150;28;20047;-66
2021/04/23 09:15:36;;;;;;;9.95;4.78;;;;;;;;;;4949277;28;20055;-66
2021/04/23 09:18:07;;;;;;;17.27;5.25;;;;;;;;;;4941414;28;20059;-70
2021/04/23 09:20:35;;;;;;;11.73;4.47;;;;;;;;;;4943054;28;20130;-70
2021/04/23 09:23:07;;;;;;;10.98;4.43;;;;;;;;;;4949753;28;20082;-72
2021/04/23 09:25:46;;;;;;;9.60;3.75;;;;;;;;;;4939874;28;20047;-69
2021/04/23 09:28:15;;;;;;;12.20;4.18;;;;;;;;;;4951523;28;20055;-69
2021/04/23 09:30:43;;;;;;;11.38;3.92;;;;;;;;;;4949667;28;20050;-68
2021/04/23 09:33:25;;;;;;;13.25;4.18;;;;;;;;;;4951450;28;20055;-69
2021/04/23 09:35:53;;;;;;;16.35;4.80;;;;;;;;;;4949047;28;20051;-68
2021/04/23 09:38:22;;;;;;;9.20;4.05;;;;;;;;;;4946880;28;20112;-70
2021/04/23 09:40:50;;;;;;;11.23;4.00;;;;;;;;;;4943127;28;20387;-68
2021/04/23 09:43:18;;;;;;;10.35;4.00;;;;;;;;;;4951092;28;20051;-69
2021/04/23 09:45:50;;;;;;;10.23;4.35;;;;;;;;;;4948652;28;20483;-70
2021/04/23 09:48:22;;;;;;;13.43;4.00;;;;;;;;;;4947380;29;20051;-72
2021/04/23 09:50:51;;;;;;;10.93;3.63;;;;;;;;;;4945554;28;20126;-69
2021/04/23 09:53:28;;;;;;;8.80;3.92;;;;;;;;;;4944086;28;20130;-72
2021/04/23 09:55:57;;;;;;;10.70;4.07;;;;;;;;;;4950702;29;20139;-68
2021/04/23 09:58:25;;;;;;;13.02;4.18;;;;;;;;;;4947401;28;20538;-70
2021/04/23 10:00:58;;;;;;;9.73;3.67;;;;;;;;;;4949043;28;20044;-70
2021/04/23 10:03:32;;;;;;;12.25;3.80;;;;;;;;;;4952395;28;20489;-69
2021/04/23 10:06:19;;;;;;;11.87;4.30;;;;;;;;;;4969539;28;20054;-69
2021/04/23 10:08:47;;;;;;;10.88;3.78;;;;;;;;;;4948103;28;20051;-70
2021/04/23 10:11:14;;;;;;;10.77;3.97;;;;;;;;;;4944428;29;20158;-72
2021/04/23 10:13:42;;;;;;;6.93;3.03;;;;;;;;;;4945262;29;20451;-68
2021/04/23 10:16:11;;;;;;;14.27;4.57;;;;;;;;;;4943619;29;20422;-67
2021/04/23 10:18:39;;;;;;;11.48;4.15;;;;;;;;;;4942895;28;20047;-73
2021/04/23 10:21:08;;;;;;;10.00;3.58;;;;;;;;;;4949353;29;20057;-70
2021/04/23 10:23:36;;;;;;;17.90;4.47;;;;;;;;;;4950273;29;20043;-69
2021/04/23 10:26:05;;;;;;;6.82;2.88;;;;;;;;;;4951008;29;20066;-69
2021/04/23 10:28:36;;;;;;;10.73;3.53;;;;;;;;;;4963970;28;20043;-68
2021/04/23 10:31:04;;;;;;;7.28;3.20;;;;;;;;;;4966984;28;20050;-70
2021/04/23 10:33:33;;;;;;;14.88;4.20;;;;;;;;;;4964028;28;20510;-70
2021/04/23 10:36:01;;;;;;;11.90;4.00;;;;;;;;;;4970463;28;20680;-68
2021/04/23 10:38:34;;;;;;;13.73;3.72;;;;;;;;;;4956633;28;20051;-68
2021/04/23 10:41:04;;;;;;;7.57;3.90;;;;;;;;;;4945633;29;20055;-68
2021/04/23 10:43:33;;;;;;;10.18;4.05;;;;;;;;;;4949357;29;20134;-68
2021/04/23 10:46:06;;;;;;;8.63;4.30;;;;;;;;;;4946778;29;20777;-68
2021/04/23 10:48:35;;;;;;;11.55;4.30;;;;;;;;;;4952147;28;20043;-66
2021/04/23 10:51:08;;;;;;;13.40;3.88;;;;;;;;;;4950799;28;20051;-67
2021/04/23 10:53:44;;;;;;;11.20;3.83;;;;;;;;;;4948751;29;20051;-66
2021/04/23 10:56:20;;;;;;;12.05;4.25;;;;;;;;;;4952165;29;20051;-67
2021/04/23 10:58:48;;;;;;;8.93;3.97;;;;;;;;;;4959713;28;20130;-66
2021/04/23 11:01:23;;;;;;;12.98;4.07;;;;;;;;;;4962836;28;20075;-67
2021/04/23 11:04:07;;;;;;;27.00;5.35;;;;;;;;;;4960336;28;20102;-70
2021/04/23 11:06:36;;;;;;;9.90;3.38;;;;;;;;;;4965549;28;20050;-67
2021/04/23 11:09:09;;;;;;;9.18;3.40;;;;;;;;;;4947224;29;20519;-68
2021/04/23 11:11:38;;;;;;;10.50;3.90;;;;;;;;;;4943704;29;20285;-68
2021/04/23 11:14:21;;;;;;;8.65;2.90;;;;;;;;;;4945704;28;20055;-67
2021/04/23 11:16:49;;;;;;;9.60;2.90;;;;;;;;;;4944953;28;20055;-67
2021/04/23 11:19:33;;;;;;;7.72;3.83;;;;;;;;;;4947892;28;20126;-69
2021/04/23 11:22:06;;;;;;;10.23;5.90;;;;;;;;;;4952694;28;20138;-68
2021/04/23 11:24:34;;;;;;;6.28;2.80;;;;;;;;;;4961171;28;20050;-67
2021/04/23 11:27:04;;;;;;;6.75;3.00;;;;;;;;;;4953451;28;20051;-68
2021/04/23 11:29:33;;;;;;;6.63;2.60;;;;;;;;;;4968313;28;20069;-65
2021/04/23 11:32:12;;;;;;;10.05;3.33;;;;;;;;;;4952917;28;20133;-66
2021/04/23 11:34:41;;;;;;;10.13;3.72;;;;;;;;;;4965399;28;20042;-65
2021/04/23 11:37:11;;;;;;;18.80;16.95;;;;;;;;;;4962991;28;20047;-65
2021/04/23 11:39:43;;;;;;;12.50;10.75;;;;;;;;;;4950110;29;20064;-68
2021/04/23 11:42:14;;;;;;;10.63;6.70;;;;;;;;;;4949862;29;20114;-68
2021/04/23 11:44:43;;;;;;;9.98;4.60;;;;;;;;;;4936790;29;20409;-65
2021/04/23 11:47:12;;;;;;;9.00;3.92;;;;;;;;;;4941410;28;20474;-66
2021/04/23 11:49:40;;;;;;;10.35;3.72;;;;;;;;;;4945782;28;20047;-66
2021/04/23 11:52:08;;;;;;;11.25;3.85;;;;;;;;;;4946550;28;20055;-66
2021/04/23 11:54:37;;;;;;;15.02;3.20;;;;;;;;;;4943119;28;20128;-65
2021/04/23 11:57:07;;;;;;;7.10;3.28;;;;;;;;;;4938655;28;20055;-65
2021/04/23 11:59:35;;;;;;;10.20;3.33;;;;;;;;;;4939554;28;20468;-65
2021/04/23 12:02:03;;;;;;;8.52;3.38;;;;;;;;;;4942627;29;20079;-68
2021/04/23 12:04:41;;;;;;;10.98;3.85;;;;;;;;;;4962618;28;20047;-66
2021/04/23 12:07:09;;;;;;;7.47;3.03;;;;;;;;;;4962906;28;20110;-68
2021/04/23 12:09:37;;;;;;;10.05;3.13;;;;;;;;;;4968384;28;20506;-69
2021/04/23 12:12:10;;;;;;;7.32;3.50;;;;;;;;;;4968886;28;20086;-67
2021/04/23 12:14:55;;;;;;;7.45;3.38;;;;;;;;;;4968439;28;20125;-71
2021/04/23 12:17:23;;;;;;;9.65;3.40;;;;;;;;;;4968160;28;20117;-66
2021/04/23 12:19:51;;;;;;;7.15;3.50;;;;;;;;;;4959261;28;20150;-69
2021/04/23 12:22:20;;;;;;;9.65;3.20;;;;;;;;;;4958092;28;20596;-68
2021/04/23 12:24:48;;;;;;;10.45;4.25;;;;;;;;;;4949825;29;20049;-72
2021/04/23 12:27:18;;;;;;;12.00;4.10;;;;;;;;;;4968202;28;20110;-66
2021/04/23 12:29:48;;;;;;;7.00;3.45;;;;;;;;;;4967354;28;20434;-68
2021/04/23 12:32:16;;;;;;;7.43;3.15;;;;;;;;;;4957653;28;20055;-65
2021/04/23 12:34:45;;;;;;;8.50;3.60;;;;;;;;;;4968798;28;20043;-65
2021/04/23 12:37:13;;;;;;;11.30;3.75;;;;;;;;;;4965534;28;20059;-67
2021/04/23 12:39:41;;;;;;;7.55;3.58;;;;;;;;;;4966431;28;20105;-68
2021/04/23 12:42:09;;;;;;;11.95;4.18;;;;;;;;;;4956618;28;20411;-66
2021/04/23 12:44:38;;;;;;;8.38;3.60;;;;;;;;;;4949694;28;20069;-69
2021/04/23 12:47:07;;;;;;;9.68;4.20;;;;;;;;;;4965443;28;20058;-66
2021/04/23 12:49:37;;;;;;;10.02;4.00;;;;;;;;;;4967427;28;20059;-66
2021/04/23 12:52:06;;;;;;;8.32;3.65;;;;;;;;;;4955936;28;20055;-66
2021/04/23 12:54:35;;;;;;;7.55;3.60;;;;;;;;;;4964618;28;20443;-66
2021/04/23 12:57:03;;;;;;;8.20;3.67;;;;;;;;;;4963895;28;20047;-69
2021/04/23 12:59:35;;;;;;;8.30;3.22;;;;;;;;;;4971648;28;20113;-65
2021/04/23 13:02:04;;;;;;;12.98;3.97;;;;;;;;;;4971764;28;20128;-65
2021/04/23 13:04:32;;;;;;;8.80;3.38;;;;;;;;;;4973527;28;20070;-66
2021/04/23 13:07:09;;;;;;;10.55;3.67;;;;;;;;;;4961741;28;20119;-66
2021/04/23 13:09:37;;;;;;;10.27;3.70;;;;;;;;;;4968119;28;20063;-69
2021/04/23 13:12:18;;;;;;;6.55;3.22;;;;;;;;;;4971803;28;20082;-66
2021/04/23 13:14:46;;;;;;;10.73;3.85;;;;;;;;;;4972931;28;20054;-65
2021/04/23 13:17:15;;;;;;;5.18;2.83;;;;;;;;;;4969904;28;20062;-66
2021/04/23 13:19:43;;;;;;;11.35;3.70;;;;;;;;;;4963205;28;20046;-69
2021/04/23 13:22:29;;;;;;;8.75;3.90;;;;;;;;;;4965529;28;20058;-66
2021/04/23 13:25:17;;;;;;;8.35;3.85;;;;;;;;;;4965395;28;20058;-67
2021/04/23 13:27:47;;;;;;;12.18;3.75;;;;;;;;;;4957631;28;20070;-67
2021/04/23 13:30:32;;;;;;;11.90;4.25;;;;;;;;;;4970732;28;20049;-66
2021/04/23 13:33:02;;;;;;;10.73;3.00;;;;;;;;;;4957318;28;20090;-66
2021/04/23 13:35:31;;;;;;;6.80;3.22;;;;;;;;;;4960702;28;20089;-66
2021/04/23 13:38:14;;;;;;;7.55;3.70;;;;;;;;;;4960207;28;20058;-68
2021/04/23 13:40:42;;;;;;;12.85;4.05;;;;;;;;;;4965453;28;20146;-66
2021/04/23 13:43:11;;;;;;;7.70;3.67;;;;;;;;;;4964613;28;20486;-65
2021/04/23 13:45:38;;;;;;;10.13;3.50;;;;;;;;;;4967181;28;20185;-67
2021/04/23 13:48:24;;;;;;;7.55;3.55;;;;;;;;;;4961934;28;20086;-66
2021/04/23 13:50:51;;;;;;;10.05;3.78;;;;;;;;;;4961561;28;20057;-70
2021/04/23 13:53:19;;;;;;;7.13;3.30;;;;;;;;;;4968389;28;20400;-66
2021/04/23 13:56:00;;;;;;;12.40;3.30;;;;;;;;;;4967636;28;20062;-67
2021/04/23 13:58:28;;;;;;;5.55;2.83;;;;;;;;;;4960956;28;20142;-72
2021/04/23 14:00:57;;;;;;;10.55;3.20;;;;;;;;;;4957326;28;20284;-69
2021/04/23 14:03:27;;;;;;;12.02;3.72;;;;;;;;;;4952606;28;20476;-70
2021/04/23 14:05:55;;;;;;;9.48;2.85;;;;;;;;;;4957583;28;20058;-70
2021/04/23 14:08:23;;;;;;;8.88;3.10;;;;;;;;;;4953823;28;20054;-71
2021/04/23 14:10:52;;;;;;;9.45;2.90;;;;;;;;;;4958220;28;20046;-70
2021/04/23 14:13:21;;;;;;;11.57;3.05;;;;;;;;;;4960199;28;20047;-67
2021/04/23 14:15:49;;;;;;;7.70;3.40;;;;;;;;;;4966714;28;20050;-69
2021/04/23 14:18:19;;;;;;;8.18;2.70;;;;;;;;;;4957268;28;20059;-66
2021/04/23 14:20:48;;;;;;;6.22;3.20;;;;;;;;;;4963799;28;20050;-68
2021/04/23 14:23:17;;;;;;;6.47;2.83;;;;;;;;;;4962579;28;20090;-68
2021/04/23 14:25:45;;;;;;;7.95;3.00;;;;;;;;;;4959542;28;20047;-70
2021/04/23 14:28:13;;;;;;;8.77;2.97;;;;;;;;;;4952915;28;20063;-69
2021/04/23 14:30:41;;;;;;;9.57;2.95;;;;;;;;;;4964806;28;20138;-67
2021/04/23 14:33:10;;;;;;;8.25;2.90;;;;;;;;;;4964995;28;20434;-67
2021/04/23 14:35:38;;;;;;;7.85;3.25;;;;;;;;;;4967281;28;20110;-69
2021/04/23 14:38:07;;;;;;;8.15;3.33;;;;;;;;;;4965357;28;20066;-67
2021/04/23 14:40:35;;;;;;;7.38;3.35;;;;;;;;;;4961802;28;20051;-71
2021/04/23 14:43:03;;;;;;;6.40;3.78;;;;;;;;;;4960296;28;20475;-71
2021/04/23 14:45:31;;;;;;;8.10;3.83;;;;;;;;;;4966020;28;20051;-70
2021/04/23 14:47:58;;;;;;;8.60;3.63;;;;;;;;;;4956592;28;20117;-68